sensor_id;sensor_type;location;lat;lon;timestamp;pressure;altitude;pressure_sealevel;temperature;humidity
53699;BME280;68408;53.952;27.612;2023-03-11T00:03:25;990.3;;;1.3;75.5
53699;BME280;68408;53.952;27.612;2023-03-11T00:09:01;990.1;;;1.4;75.5
53699;BME280;68408;53.952;27.612;2023-03-11T00:14:15;989.9;;;1.4;75.4
53699;BME280;68408;53.952;27.612;2023-03-11T00:18:39;989.9;;;1.3;75.4
53699;BME280;68408;53.952;27.612;2023-03-11T00:23:51;989.8;;;1.3;75.7
53699;BME280;68408;53.952;27.612;2023-03-11T00:28:37;989.8;;;1.3;76
53699;BME280;68408;53.952;27.612;2023-03-11T00:34:01;989.8;;;1.3;76.3
53699;BME280;68408;53.952;27.612;2023-03-11T00:39:13;989.7;;;1.4;76.3
53699;BME280;68408;53.952;27.612;2023-03-11T00:43:37;989.6;;;1.4;76.3
53699;BME280;68408;53.952;27.612;2023-03-11T00:48:51;989.6;;;1.5;76.2
53699;BME280;68408;53.952;27.612;2023-03-11T00:53:37;989.5;;;1.5;76.2
53699;BME280;68408;53.952;27.612;2023-03-11T00:58:51;989.4;;;1.6;76.3
53699;BME280;68408;53.952;27.612;2023-03-11T01:04:15;989.3;;;1.6;76.2
53699;BME280;68408;53.952;27.612;2023-03-11T01:08:25;989.2;;;1.6;76.2
53699;BME280;68408;53.952;27.612;2023-03-11T01:14:15;989.2;;;1.7;76.3
53699;BME280;68408;53.952;27.612;2023-03-11T01:18:37;989.1;;;1.7;76.6
53699;BME280;68408;53.952;27.612;2023-03-11T01:23:51;989;;;1.7;76.8
53699;BME280;68408;53.952;27.612;2023-03-11T01:29:15;989;;;1.7;77.1
53699;BME280;68408;53.952;27.612;2023-03-11T01:33:25;988.9;;;1.8;77.4
53699;BME280;68408;53.952;27.612;2023-03-11T01:38:51;988.8;;;1.8;77.7
53699;BME280;68408;53.952;27.612;2023-03-11T01:43:51;988.8;;;1.8;77.7
53699;BME280;68408;53.952;27.612;2023-03-11T01:48:27;988.8;;;1.9;77.9
53699;BME280;68408;53.952;27.612;2023-03-11T01:54:17;988.7;;;1.9;78
53699;BME280;68408;53.952;27.612;2023-03-11T01:59:01;988.6;;;2;78.2
53699;BME280;68408;53.952;27.612;2023-03-11T02:03:39;988.6;;;2.1;77.9
53699;BME280;68408;53.952;27.612;2023-03-11T02:08:25;988.6;;;2.1;78
53699;BME280;68408;53.952;27.612;2023-03-11T02:14:02;988.5;;;2.2;78
53699;BME280;68408;53.952;27.612;2023-03-11T02:19:15;988.4;;;2.3;78.2
53699;BME280;68408;53.952;27.612;2023-03-11T02:23:58;988.3;;;2.4;78.1
53699;BME280;68408;53.952;27.612;2023-03-11T02:28:25;988.2;;;2.4;78.1
53699;BME280;68408;53.952;27.612;2023-03-11T02:33:25;988.2;;;2.4;78.3
53699;BME280;68408;53.952;27.612;2023-03-11T02:38:59;988.1;;;2.4;78.4
53699;BME280;68408;53.952;27.612;2023-03-11T02:44:13;988.1;;;2.4;78.3
53699;BME280;68408;53.952;27.612;2023-03-11T02:48:59;988;;;2.5;78.2
53699;BME280;68408;53.952;27.612;2023-03-11T02:53:50;988;;;2.5;78.4
53699;BME280;68408;53.952;27.612;2023-03-11T02:58:49;987.9;;;2.5;78.3
53699;BME280;68408;53.952;27.612;2023-03-11T03:03:27;988;;;2.5;78.3
53699;BME280;68408;53.952;27.612;2023-03-11T03:09:15;988;;;2.5;78.4
53699;BME280;68408;53.952;27.612;2023-03-11T03:13:59;987.9;;;2.6;78.3
53699;BME280;68408;53.952;27.612;2023-03-11T03:18:39;987.8;;;2.5;78.4
53699;BME280;68408;53.952;27.612;2023-03-11T03:23:37;987.9;;;2.6;78.4
53699;BME280;68408;53.952;27.612;2023-03-11T03:29:01;987.8;;;2.6;78.4
53699;BME280;68408;53.952;27.612;2023-03-11T03:34:15;987.8;;;2.6;78.4
53699;BME280;68408;53.952;27.612;2023-03-11T03:39:01;987.6;;;2.6;78.5
53699;BME280;68408;53.952;27.612;2023-03-11T03:43:39;987.5;;;2.6;78.6
53699;BME280;68408;53.952;27.612;2023-03-11T03:49:05;987.3;;;2.7;78.7
53699;BME280;68408;53.952;27.612;2023-03-11T03:54:01;987.3;;;2.7;78.6
53699;BME280;68408;53.952;27.612;2023-03-11T03:59:17;987.2;;;2.7;78.6
53699;BME280;68408;53.952;27.612;2023-03-11T04:04:01;987.2;;;2.7;78.5
53699;BME280;68408;53.952;27.612;2023-03-11T04:08:37;987.1;;;2.7;78.6
53699;BME280;68408;53.952;27.612;2023-03-11T04:13:25;986.9;;;2.7;78.6
53699;BME280;68408;53.952;27.612;2023-03-11T04:18:47;986.8;;;2.7;78.5
53699;BME280;68408;53.952;27.612;2023-03-11T04:24:07;986.8;;;2.7;78.5
53699;BME280;68408;53.952;27.612;2023-03-11T04:28:47;986.7;;;2.7;78.5
53699;BME280;68408;53.952;27.612;2023-03-11T04:33:25;986.7;;;2.7;78.6
53699;BME280;68408;53.952;27.612;2023-03-11T04:39:01;986.8;;;2.8;78.4
53699;BME280;68408;53.952;27.612;2023-03-11T04:43:59;986.9;;;2.7;78.4
53699;BME280;68408;53.952;27.612;2023-03-11T04:49:11;986.7;;;2.7;78.5
53699;BME280;68408;53.952;27.612;2023-03-11T04:53:59;986.5;;;2.7;78.6
53699;BME280;68408;53.952;27.612;2023-03-11T04:58:51;986.6;;;2.7;78.6
53699;BME280;68408;53.952;27.612;2023-03-11T05:03:49;986.5;;;2.7;78.6
53699;BME280;68408;53.952;27.612;2023-03-11T05:08:41;986.4;;;2.7;78.7
53699;BME280;68408;53.952;27.612;2023-03-11T05:14:15;986.3;;;2.8;78.7
53699;BME280;68408;53.952;27.612;2023-03-11T05:19:01;986.2;;;2.9;78.5
53699;BME280;68408;53.952;27.612;2023-03-11T05:24:03;986.1;;;2.9;78.4
53699;BME280;68408;53.952;27.612;2023-03-11T05:28:37;986;;;3;78.3
53699;BME280;68408;53.952;27.612;2023-03-11T05:34:15;985.9;;;3.1;78.3
53699;BME280;68408;53.952;27.612;2023-03-11T05:39:01;985.9;;;3.2;78.2
53699;BME280;68408;53.952;27.612;2023-03-11T05:43:35;985.9;;;3.4;77.9
53699;BME280;68408;53.952;27.612;2023-03-11T05:49:11;985.7;;;3.6;77.3
53699;BME280;68408;53.952;27.612;2023-03-11T05:53:37;985.6;;;3.8;77.1
53699;BME280;68408;53.952;27.612;2023-03-11T05:59:14;985.7;;;3.9;76.3
53699;BME280;68408;53.952;27.612;2023-03-11T06:04:01;985.9;;;4.1;76.3
53699;BME280;68408;53.952;27.612;2023-03-11T06:08:49;985.8;;;4.3;75.9
53699;BME280;68408;53.952;27.612;2023-03-11T06:14:15;985.8;;;4.3;75.5
53699;BME280;68408;53.952;27.612;2023-03-11T06:18:37;985.8;;;4.4;75.5
53699;BME280;68408;53.952;27.612;2023-03-11T06:24:17;985.8;;;4.5;75
53699;BME280;68408;53.952;27.612;2023-03-11T06:29:06;985.8;;;4.5;74.9
53699;BME280;68408;53.952;27.612;2023-03-11T06:33:25;985.8;;;4.6;74.8
53699;BME280;68408;53.952;27.612;2023-03-11T06:39:11;985.7;;;4.8;74.6
53699;BME280;68408;53.952;27.612;2023-03-11T06:43:35;985.5;;;5;74.2
53699;BME280;68408;53.952;27.612;2023-03-11T06:49:11;985.5;;;5;73.8
53699;BME280;68408;53.952;27.612;2023-03-11T06:54:03;985.4;;;5.2;73.6
53699;BME280;68408;53.952;27.612;2023-03-11T06:58:47;985.3;;;5.3;73.5
53699;BME280;68408;53.952;27.612;2023-03-11T07:04:13;985.1;;;5.5;73
53699;BME280;68408;53.952;27.612;2023-03-11T07:08:25;985.2;;;5.6;72.5
53699;BME280;68408;53.952;27.612;2023-03-11T07:14:15;985.2;;;5.7;72.3
53699;BME280;68408;53.952;27.612;2023-03-11T07:18:49;985.2;;;5.7;71.8
53699;BME280;68408;53.952;27.612;2023-03-11T07:24:05;985.1;;;5.8;71.4
53699;BME280;68408;53.952;27.612;2023-03-11T07:29:15;985;;;6;71.3
53699;BME280;68408;53.952;27.612;2023-03-11T07:33:35;984.9;;;6.2;70.7
53699;BME280;68408;53.952;27.612;2023-03-11T07:39:12;984.8;;;6.4;70.1
53699;BME280;68408;53.952;27.612;2023-03-11T07:43:52;984.6;;;6.7;69
53699;BME280;68408;53.952;27.612;2023-03-11T07:48:53;984.6;;;7.1;67.9
53699;BME280;68408;53.952;27.612;2023-03-11T07:54:13;984.6;;;7.3;67.5
53699;BME280;68408;53.952;27.612;2023-03-11T07:58:25;984.6;;;7.5;66.6
53699;BME280;68408;53.952;27.612;2023-03-11T08:04:13;984.5;;;7.8;65.8
53699;BME280;68408;53.952;27.612;2023-03-11T08:09:00;984.4;;;8.2;64.5
53699;BME280;68408;53.952;27.612;2023-03-11T08:14:01;984.3;;;8.5;64
53699;BME280;68408;53.952;27.612;2023-03-11T08:18:59;984.2;;;8.6;63.7
53699;BME280;68408;53.952;27.612;2023-03-11T08:23:45;984.2;;;8.8;63
53699;BME280;68408;53.952;27.612;2023-03-11T08:29:09;984.2;;;8.9;62.5
53699;BME280;68408;53.952;27.612;2023-03-11T08:34:00;984.1;;;8.9;62.1
53699;BME280;68408;53.952;27.612;2023-03-11T08:38:47;984;;;9;62.2
53699;BME280;68408;53.952;27.612;2023-03-11T08:44:13;984;;;9.2;61.9
53699;BME280;68408;53.952;27.612;2023-03-11T08:48:35;984;;;9.3;61.1
53699;BME280;68408;53.952;27.612;2023-03-11T08:54:11;983.9;;;9.4;61.1
53699;BME280;68408;53.952;27.612;2023-03-11T08:58:59;983.9;;;9.6;60.7
53699;BME280;68408;53.952;27.612;2023-03-11T09:03:47;983.9;;;9.7;59.9
53699;BME280;68408;53.952;27.612;2023-03-11T09:09:13;983.9;;;9.8;59.9
53699;BME280;68408;53.952;27.612;2023-03-11T09:13:25;984;;;10;59.4
53699;BME280;68408;53.952;27.612;2023-03-11T09:19:13;984;;;10.1;59.2
53699;BME280;68408;53.952;27.612;2023-03-11T09:23:59;984;;;10.1;58.9
53699;BME280;68408;53.952;27.612;2023-03-11T09:28:47;984;;;10.4;58.3
53699;BME280;68408;53.952;27.612;2023-03-11T09:34:13;983.9;;;10.6;57.2
53699;BME280;68408;53.952;27.612;2023-03-11T09:38:35;983.9;;;10.5;57.1
53699;BME280;68408;53.952;27.612;2023-03-11T09:44:07;983.8;;;10.4;57.2
53699;BME280;68408;53.952;27.612;2023-03-11T09:49:17;983.8;;;10.7;57
53699;BME280;68408;53.952;27.612;2023-03-11T09:53:48;983.7;;;10.9;56.4
53699;BME280;68408;53.952;27.612;2023-03-11T09:59:14;983.6;;;11.1;55.7
53699;BME280;68408;53.952;27.612;2023-03-11T10:03:35;983.7;;;11.4;55.1
53699;BME280;68408;53.952;27.612;2023-03-11T10:08:59;983.7;;;11.6;54.5
53699;BME280;68408;53.952;27.612;2023-03-11T10:14:13;983.7;;;11.5;54.5
53699;BME280;68408;53.952;27.612;2023-03-11T10:18:42;983.7;;;11.3;54.7
53699;BME280;68408;53.952;27.612;2023-03-11T10:24:15;983.8;;;11.3;54.8
53699;BME280;68408;53.952;27.612;2023-03-11T10:28:26;983.8;;;11.3;54.7
53699;BME280;68408;53.952;27.612;2023-03-11T10:34:00;983.8;;;11.4;54.3
53699;BME280;68408;53.952;27.612;2023-03-11T10:39:11;983.7;;;11.5;54
53699;BME280;68408;53.952;27.612;2023-03-11T10:43:46;983.7;;;11.4;54.2
53699;BME280;68408;53.952;27.612;2023-03-11T10:49:12;983.7;;;11.1;54.6
53699;BME280;68408;53.952;27.612;2023-03-11T10:53:25;983.7;;;10.9;55
53699;BME280;68408;53.952;27.612;2023-03-11T10:58:59;983.7;;;10.9;55.1
53699;BME280;68408;53.952;27.612;2023-03-11T11:04:22;983.7;;;10.9;55.1
53699;BME280;68408;53.952;27.612;2023-03-11T11:09:02;983.6;;;11.1;54.9
53699;BME280;68408;53.952;27.612;2023-03-11T11:13:59;983.6;;;11.2;54.8
53699;BME280;68408;53.952;27.612;2023-03-11T11:18:26;983.6;;;11.2;54.7
53699;BME280;68408;53.952;27.612;2023-03-11T11:24:02;983.5;;;11.1;54.9
53699;BME280;68408;53.952;27.612;2023-03-11T11:29:12;983.5;;;11.1;55
53699;BME280;68408;53.952;27.612;2023-03-11T11:33:48;983.4;;;10.9;55.2
53699;BME280;68408;53.952;27.612;2023-03-11T11:39:14;983.4;;;10.8;55.6
53699;BME280;68408;53.952;27.612;2023-03-11T11:43:41;983.4;;;10.6;55.9
53699;BME280;68408;53.952;27.612;2023-03-11T11:49:03;983.3;;;10.5;56.1
53699;BME280;68408;53.952;27.612;2023-03-11T11:54:14;983.3;;;10.3;56.4
53699;BME280;68408;53.952;27.612;2023-03-11T11:58:25;983.3;;;10.1;57
53699;BME280;68408;53.952;27.612;2023-03-11T12:04:32;983.2;;;9.9;57.4
53699;BME280;68408;53.952;27.612;2023-03-11T12:08:51;983.2;;;9.8;57.8
53699;BME280;68408;53.952;27.612;2023-03-11T12:14:02;983.2;;;9.8;57.9
53699;BME280;68408;53.952;27.612;2023-03-11T12:19:18;983.2;;;9.8;57.9
53699;BME280;68408;53.952;27.612;2023-03-11T12:23:41;983.2;;;9.9;57.8
53699;BME280;68408;53.952;27.612;2023-03-11T12:29:16;983.2;;;9.9;58
53699;BME280;68408;53.952;27.612;2023-03-11T12:33:26;983.2;;;9.9;58
53699;BME280;68408;53.952;27.612;2023-03-11T12:39:02;983.1;;;9.9;58.2
53699;BME280;68408;53.952;27.612;2023-03-11T12:44:23;983.1;;;9.9;58.6
53699;BME280;68408;53.952;27.612;2023-03-11T12:48:57;983.1;;;9.9;58.8
53699;BME280;68408;53.952;27.612;2023-03-11T12:54:19;983.1;;;9.9;58.9
53699;BME280;68408;53.952;27.612;2023-03-11T12:58:41;983.1;;;10;59.1
53699;BME280;68408;53.952;27.612;2023-03-11T13:04:03;983.1;;;10;59.1
53699;BME280;68408;53.952;27.612;2023-03-11T13:09:13;983.1;;;10.1;58.9
53699;BME280;68408;53.952;27.612;2023-03-11T13:13:45;983.1;;;10.2;58.9
53699;BME280;68408;53.952;27.612;2023-03-11T13:19:31;983.1;;;10;59.3
53699;BME280;68408;53.952;27.612;2023-03-11T13:23:37;983.1;;;9.9;59.6
53699;BME280;68408;53.952;27.612;2023-03-11T13:29:04;983;;;9.9;59.7
53699;BME280;68408;53.952;27.612;2023-03-11T13:33:56;982.9;;;9.9;60
53699;BME280;68408;53.952;27.612;2023-03-11T13:40:19;982.9;;;9.8;60.2
53699;BME280;68408;53.952;27.612;2023-03-11T13:44:13;982.9;;;9.8;60.6
53699;BME280;68408;53.952;27.612;2023-03-11T13:48:36;982.8;;;9.7;61
53699;BME280;68408;53.952;27.612;2023-03-11T13:53:58;982.8;;;9.7;61.3
53699;BME280;68408;53.952;27.612;2023-03-11T13:58:26;982.8;;;9.7;61.6
53699;BME280;68408;53.952;27.612;2023-03-11T14:04:11;982.8;;;9.6;61.8
53699;BME280;68408;53.952;27.612;2023-03-11T14:09:14;982.8;;;9.6;62
53699;BME280;68408;53.952;27.612;2023-03-11T14:13:26;982.8;;;9.6;62.2
53699;BME280;68408;53.952;27.612;2023-03-11T14:19:00;982.8;;;9.5;62.4
53699;BME280;68408;53.952;27.612;2023-03-11T14:23:39;982.8;;;9.4;62.7
53699;BME280;68408;53.952;27.612;2023-03-11T14:28:36;982.8;;;9.3;63.2
53699;BME280;68408;53.952;27.612;2023-03-11T14:34:13;982.8;;;9.2;63.7
53699;BME280;68408;53.952;27.612;2023-03-11T14:38:41;982.8;;;9.1;64.1
53699;BME280;68408;53.952;27.612;2023-03-11T14:43:59;982.8;;;9;64.6
53699;BME280;68408;53.952;27.612;2023-03-11T14:49:11;982.8;;;8.9;65.1
53699;BME280;68408;53.952;27.612;2023-03-11T14:53:48;982.8;;;8.9;65.3
53699;BME280;68408;53.952;27.612;2023-03-11T14:59:12;982.8;;;8.8;65.6
53699;BME280;68408;53.952;27.612;2023-03-11T15:03:38;982.8;;;8.7;66.1
53699;BME280;68408;53.952;27.612;2023-03-11T15:08:58;982.7;;;8.7;66.7
53699;BME280;68408;53.952;27.612;2023-03-11T15:13:47;982.7;;;8.6;67.1
53699;BME280;68408;53.952;27.612;2023-03-11T15:18:59;982.7;;;8.5;67.4
53699;BME280;68408;53.952;27.612;2023-03-11T15:24:14;982.7;;;8.5;67.7
53699;BME280;68408;53.952;27.612;2023-03-11T15:28:35;982.7;;;8.5;67.7
53699;BME280;68408;53.952;27.612;2023-03-11T15:33:47;982.7;;;8.4;67.5
53699;BME280;68408;53.952;27.612;2023-03-11T15:38:25;982.7;;;8.3;67.8
53699;BME280;68408;53.952;27.612;2023-03-11T15:43:46;982.8;;;8.2;68
53699;BME280;68408;53.952;27.612;2023-03-11T15:49:11;982.8;;;8.1;68.3
53699;BME280;68408;53.952;27.612;2023-03-11T15:53:26;982.8;;;8;69
53699;BME280;68408;53.952;27.612;2023-03-11T15:58:59;982.7;;;8;69.4
53699;BME280;68408;53.952;27.612;2023-03-11T16:03:47;982.7;;;8;69.7
53699;BME280;68408;53.952;27.612;2023-03-11T16:08:25;982.7;;;8;69.6
53699;BME280;68408;53.952;27.612;2023-03-11T16:14:12;982.8;;;7.9;69.9
53699;BME280;68408;53.952;27.612;2023-03-11T16:18:47;982.8;;;7.9;70.1
53699;BME280;68408;53.952;27.612;2023-03-11T16:23:59;982.8;;;7.9;70.3
53699;BME280;68408;53.952;27.612;2023-03-11T16:28:25;982.8;;;7.9;70.5
53699;BME280;68408;53.952;27.612;2023-03-11T16:33:47;982.8;;;7.9;70.6
53699;BME280;68408;53.952;27.612;2023-03-11T16:39:11;982.9;;;7.9;70.4
53699;BME280;68408;53.952;27.612;2023-03-11T16:43:26;982.9;;;7.9;70.5
53699;BME280;68408;53.952;27.612;2023-03-11T16:48:57;982.9;;;7.9;70.4
53699;BME280;68408;53.952;27.612;2023-03-11T16:53:25;982.9;;;7.9;70.5
53699;BME280;68408;53.952;27.612;2023-03-11T16:58:25;983;;;7.8;70
53699;BME280;68408;53.952;27.612;2023-03-11T17:04:09;983;;;7.8;69.9
53699;BME280;68408;53.952;27.612;2023-03-11T17:08:25;983;;;7.7;69.8
53699;BME280;68408;53.952;27.612;2023-03-11T17:13:57;983.1;;;7.5;70.1
53699;BME280;68408;53.952;27.612;2023-03-11T17:18:35;983.1;;;7.4;70.2
53699;BME280;68408;53.952;27.612;2023-03-11T17:23:25;983;;;7.3;70.5
53699;BME280;68408;53.952;27.612;2023-03-11T17:29:07;983.1;;;7.3;70.6
53699;BME280;68408;53.952;27.612;2023-03-11T17:33:47;983.1;;;7.2;71
53699;BME280;68408;53.952;27.612;2023-03-11T17:38:59;983.1;;;7.2;71.3
53699;BME280;68408;53.952;27.612;2023-03-11T17:43:35;983.1;;;7.2;71.4
53699;BME280;68408;53.952;27.612;2023-03-11T17:48:47;983.1;;;7.1;71.6
53699;BME280;68408;53.952;27.612;2023-03-11T17:54:09;983.1;;;7.2;72
53699;BME280;68408;53.952;27.612;2023-03-11T17:58:45;983.2;;;7.2;71.8
53699;BME280;68408;53.952;27.612;2023-03-11T18:03:59;983.2;;;7.1;71.8
53699;BME280;68408;53.952;27.612;2023-03-11T18:08:47;983.3;;;7.1;72.3
53699;BME280;68408;53.952;27.612;2023-03-11T18:13:59;983.3;;;7;72.7
53699;BME280;68408;53.952;27.612;2023-03-11T18:19:11;983.3;;;7.1;73
53699;BME280;68408;53.952;27.612;2023-03-11T18:23:47;983.3;;;7;73.2
53699;BME280;68408;53.952;27.612;2023-03-11T18:28:59;983.4;;;7;73.3
53699;BME280;68408;53.952;27.612;2023-03-11T18:33:35;983.5;;;6.8;73.5
53699;BME280;68408;53.952;27.612;2023-03-11T18:38:47;983.6;;;6.6;73.4
53699;BME280;68408;53.952;27.612;2023-03-11T18:44:11;983.9;;;6.2;71.1
53699;BME280;68408;53.952;27.612;2023-03-11T18:48:35;984;;;5.5;69.8
53699;BME280;68408;53.952;27.612;2023-03-11T18:53:59;984.2;;;4.8;70.2
53699;BME280;68408;53.952;27.612;2023-03-11T18:58:25;984.3;;;4.3;71.1
53699;BME280;68408;53.952;27.612;2023-03-11T19:03:35;984.5;;;3.9;71.4
53699;BME280;68408;53.952;27.612;2023-03-11T19:08:49;984.6;;;3.4;73
53699;BME280;68408;53.952;27.612;2023-03-11T19:13:31;984.8;;;3;77.2
53699;BME280;68408;53.952;27.612;2023-03-11T19:19:01;984.9;;;2.7;79.4
53699;BME280;68408;53.952;27.612;2023-03-11T19:23:49;985;;;2.3;79.5
53699;BME280;68408;53.952;27.612;2023-03-11T19:28:47;985;;;2.1;79.9
53699;BME280;68408;53.952;27.612;2023-03-11T19:34:15;985;;;2;78.9
53699;BME280;68408;53.952;27.612;2023-03-11T19:38:35;985.2;;;1.8;79.3
53699;BME280;68408;53.952;27.612;2023-03-11T19:43:51;985.3;;;1.7;79
53699;BME280;68408;53.952;27.612;2023-03-11T19:48:37;985.4;;;1.5;78.9
53699;BME280;68408;53.952;27.612;2023-03-11T19:53:47;985.5;;;1.4;80
53699;BME280;68408;53.952;27.612;2023-03-11T19:59:15;985.6;;;1.3;82.4
53699;BME280;68408;53.952;27.612;2023-03-11T20:03:35;985.6;;;1.2;82.2
53699;BME280;68408;53.952;27.612;2023-03-11T20:09:01;985.7;;;1.1;80.8
53699;BME280;68408;53.952;27.612;2023-03-11T20:13:37;985.9;;;1;81
53699;BME280;68408;53.952;27.612;2023-03-11T20:19:03;985.9;;;0.9;81.3
53699;BME280;68408;53.952;27.612;2023-03-11T20:24:15;985.9;;;0.8;81.2
53699;BME280;68408;53.952;27.612;2023-03-11T20:28:35;986;;;0.7;79.8
53699;BME280;68408;53.952;27.612;2023-03-11T20:34:01;986.1;;;0.6;79.5
53699;BME280;68408;53.952;27.612;2023-03-11T20:38:25;986.2;;;0.5;80.5
53699;BME280;68408;53.952;27.612;2023-03-11T20:43:50;986.2;;;0.4;81.3
53699;BME280;68408;53.952;27.612;2023-03-11T20:49:13;986.3;;;0.3;81.1
53699;BME280;68408;53.952;27.612;2023-03-11T20:54:01;986.4;;;0.2;81.3
53699;BME280;68408;53.952;27.612;2023-03-11T20:59:01;986.5;;;0.1;82.1
53699;BME280;68408;53.952;27.612;2023-03-11T21:03:25;986.6;;;0;81
53699;BME280;68408;53.952;27.612;2023-03-11T21:08:47;986.6;;;-0.1;80.7
53699;BME280;68408;53.952;27.612;2023-03-11T21:14:14;986.7;;;-0.1;81.9
53699;BME280;68408;53.952;27.612;2023-03-11T21:18:25;986.7;;;-0.2;82
53699;BME280;68408;53.952;27.612;2023-03-11T21:24:01;986.8;;;-0.3;82.3
53699;BME280;68408;53.952;27.612;2023-03-11T21:29:13;986.8;;;-0.3;81.7
53699;BME280;68408;53.952;27.612;2023-03-11T21:33:59;986.8;;;-0.3;80.5
53699;BME280;68408;53.952;27.612;2023-03-11T21:38:45;986.8;;;-0.3;79.3
53699;BME280;68408;53.952;27.612;2023-03-11T21:44:11;987;;;-0.3;79.9
53699;BME280;68408;53.952;27.612;2023-03-11T21:49:00;987;;;-0.4;80.4
53699;BME280;68408;53.952;27.612;2023-03-11T21:53:35;987.1;;;-0.4;81.2
53699;BME280;68408;53.952;27.612;2023-03-11T21:58:27;987.2;;;-0.4;80.8
53699;BME280;68408;53.952;27.612;2023-03-11T22:03:47;987.2;;;-0.4;80.3
53699;BME280;68408;53.952;27.612;2023-03-11T22:09:11;987.2;;;-0.4;79.4
53699;BME280;68408;53.952;27.612;2023-03-11T22:13:59;987.1;;;-0.4;80
53699;BME280;68408;53.952;27.612;2023-03-11T22:18:37;987.3;;;-0.4;80.2
53699;BME280;68408;53.952;27.612;2023-03-11T22:23:59;987.5;;;-0.5;80.4
53699;BME280;68408;53.952;27.612;2023-03-11T22:28:47;987.5;;;-0.6;82.4
53699;BME280;68408;53.952;27.612;2023-03-11T22:34:11;987.6;;;-0.7;83.2
53699;BME280;68408;53.952;27.612;2023-03-11T22:38:59;987.7;;;-0.7;82.7
53699;BME280;68408;53.952;27.612;2023-03-11T22:43:25;988;;;-0.7;80
53699;BME280;68408;53.952;27.612;2023-03-11T22:48:27;987.9;;;-0.7;78.8
53699;BME280;68408;53.952;27.612;2023-03-11T22:53:47;987.9;;;-0.8;77.1
53699;BME280;68408;53.952;27.612;2023-03-11T22:59:11;988.1;;;-0.8;76.1
53699;BME280;68408;53.952;27.612;2023-03-11T23:03:55;988;;;-0.8;75.2
53699;BME280;68408;53.952;27.612;2023-03-11T23:08:25;988.1;;;-0.8;74.6
53699;BME280;68408;53.952;27.612;2023-03-11T23:13:37;988.2;;;-0.8;74.3
53699;BME280;68408;53.952;27.612;2023-03-11T23:18:46;988.2;;;-0.9;73.4
53699;BME280;68408;53.952;27.612;2023-03-11T23:24:09;988.4;;;-0.9;73.1
53699;BME280;68408;53.952;27.612;2023-03-11T23:28:45;988.5;;;-0.9;72.3
53699;BME280;68408;53.952;27.612;2023-03-11T23:33:25;988.6;;;-1;71.3
53699;BME280;68408;53.952;27.612;2023-03-11T23:38:57;988.7;;;-1;71.1
53699;BME280;68408;53.952;27.612;2023-03-11T23:43:45;988.6;;;-1;70.8
53699;BME280;68408;53.952;27.612;2023-03-11T23:49:07;988.8;;;-1;70.1
53699;BME280;68408;53.952;27.612;2023-03-11T23:53:47;988.8;;;-1.1;69.6
53699;BME280;68408;53.952;27.612;2023-03-11T23:58:35;988.9;;;-1.1;69.9
